createdAt,value
2023-05-19T00:00:09.299Z,18.83
2023-05-19T00:02:37.089Z,18.82
2023-05-19T00:05:05.598Z,18.79
2023-05-19T00:07:36.591Z,18.78
2023-05-19T00:10:04.780Z,18.75
2023-05-19T00:12:32.298Z,18.76
2023-05-19T00:15:01.650Z,18.78
2023-05-19T00:20:13.947Z,18.69
2023-05-19T00:22:41.197Z,18.69
2023-05-19T00:25:09.196Z,18.70
2023-05-19T00:27:36.388Z,19.69
2023-05-19T00:30:06.206Z,19.92
2023-05-19T00:32:33.321Z,19.89
2023-05-19T00:35:00.618Z,20.36
2023-05-19T00:37:27.742Z,20.52
2023-05-19T00:39:54.961Z,20.74
2023-05-19T00:42:22.081Z,20.72
2023-05-19T00:44:49.309Z,20.53
2023-05-19T00:47:17.884Z,20.61
2023-05-19T00:49:45.039Z,20.81
2023-05-19T00:52:12.297Z,20.88
2023-05-19T00:54:39.627Z,20.83
2023-05-19T00:57:07.334Z,20.85
2023-05-19T00:59:34.818Z,21.05
2023-05-19T01:02:02.356Z,21.05
2023-05-19T01:04:33.063Z,20.81
2023-05-19T01:07:01.131Z,20.76
2023-05-19T01:09:28.738Z,20.70
2023-05-19T01:11:56.244Z,20.52
2023-05-19T01:14:23.741Z,20.55
2023-05-19T01:17:01.216Z,20.60
2023-05-19T01:19:51.065Z,20.54
2023-05-19T01:22:40.220Z,20.47
2023-05-19T01:25:45.118Z,20.41
2023-05-19T01:28:48.602Z,20.67
2023-05-19T01:31:19.533Z,20.59
2023-05-19T01:33:49.185Z,20.58
2023-05-19T01:36:19.558Z,20.35
2023-05-19T01:38:51.225Z,20.44
2023-05-19T01:41:20.005Z,20.48
2023-05-19T01:43:48.557Z,20.29
2023-05-19T01:46:19.007Z,20.22
2023-05-19T01:48:47.703Z,20.09
2023-05-19T01:51:14.832Z,19.97
2023-05-19T01:53:42.086Z,19.99
2023-05-19T01:56:09.485Z,20.10
2023-05-19T01:58:45.605Z,19.99
2023-05-19T02:01:29.476Z,19.84
2023-05-19T02:04:15.039Z,19.97
2023-05-19T02:06:49.987Z,19.86
2023-05-19T02:09:25.663Z,19.82
2023-05-19T02:12:00.394Z,20.01
2023-05-19T02:14:33.160Z,19.73
2023-05-19T02:17:05.523Z,19.75
2023-05-19T02:19:35.570Z,19.62
2023-05-19T02:22:02.801Z,19.70
2023-05-19T02:24:30.165Z,19.95
2023-05-19T02:26:57.381Z,19.93
2023-05-19T02:29:24.583Z,19.88
2023-05-19T02:31:51.801Z,19.84
2023-05-19T02:34:20.622Z,19.84
2023-05-19T02:36:47.819Z,19.87
2023-05-19T02:39:14.926Z,19.73
2023-05-19T02:41:42.041Z,19.59
2023-05-19T02:44:09.195Z,19.75
2023-05-19T02:46:36.479Z,19.95
2023-05-19T02:49:03.788Z,19.82
2023-05-19T02:51:32.438Z,19.65
2023-05-19T02:53:59.558Z,19.68
2023-05-19T02:56:26.759Z,19.60
2023-05-19T02:58:53.883Z,19.66
2023-05-19T03:01:21.002Z,19.54
2023-05-19T03:03:48.253Z,19.52
2023-05-19T03:06:15.697Z,19.51
2023-05-19T03:08:44.259Z,19.41
2023-05-19T03:11:11.420Z,19.39
2023-05-19T03:13:38.685Z,19.40
2023-05-19T03:16:06.014Z,19.36
2023-05-19T03:18:33.283Z,19.32
2023-05-19T03:21:00.663Z,19.23
2023-05-19T03:23:27.850Z,19.28
2023-05-19T03:25:56.459Z,19.19
2023-05-19T03:28:23.682Z,19.24
2023-05-19T03:30:51.038Z,19.30
2023-05-19T03:33:18.519Z,19.35
2023-05-19T03:35:46.249Z,19.25
2023-05-19T03:38:13.445Z,19.21
2023-05-19T03:40:40.915Z,19.35
2023-05-19T03:43:09.502Z,19.19
2023-05-19T03:45:36.713Z,19.26
2023-05-19T03:48:04.391Z,19.25
2023-05-19T03:50:32.175Z,19.19
2023-05-19T03:52:59.446Z,19.32
2023-05-19T03:55:26.953Z,19.44
2023-05-19T03:57:54.190Z,19.53
2023-05-19T04:00:22.963Z,19.44
2023-05-19T04:02:50.157Z,19.38
2023-05-19T04:05:17.557Z,19.32
2023-05-19T04:07:44.744Z,19.24
2023-05-19T04:10:12.871Z,19.31
2023-05-19T04:12:40.263Z,19.37
2023-05-19T04:15:08.746Z,19.41
2023-05-19T04:17:37.672Z,19.46
2023-05-19T04:20:05.923Z,19.47
2023-05-19T04:22:33.088Z,19.38
2023-05-19T04:25:00.243Z,19.45
2023-05-19T04:27:27.604Z,19.36
2023-05-19T04:29:54.822Z,19.29
2023-05-19T04:32:22.107Z,19.23
2023-05-19T04:34:50.783Z,19.19
2023-05-19T04:37:18.115Z,19.15
2023-05-19T04:39:45.481Z,19.06
2023-05-19T04:42:12.745Z,19.02
2023-05-19T04:44:40.177Z,19.14
2023-05-19T04:47:07.879Z,19.07
2023-05-19T04:49:35.526Z,19.04
2023-05-19T04:52:04.784Z,19.02
2023-05-19T04:54:31.925Z,19.13
2023-05-19T04:56:59.046Z,19.11
2023-05-19T04:59:26.271Z,19.22
2023-05-19T05:01:53.543Z,19.16
2023-05-19T05:04:20.685Z,19.15
2023-05-19T05:06:48.166Z,19.15
2023-05-19T05:09:17.824Z,19.20
2023-05-19T05:11:45.984Z,19.34
2023-05-19T05:14:13.856Z,19.32
2023-05-19T05:16:41.732Z,19.30
2023-05-19T05:19:09.768Z,19.39
2023-05-19T05:21:37.798Z,19.49
2023-05-19T05:24:05.900Z,19.52
2023-05-19T05:26:36.040Z,19.74
2023-05-19T05:29:03.565Z,19.74
2023-05-19T05:31:30.838Z,19.91
2023-05-19T05:33:58.409Z,20.02
2023-05-19T05:36:25.701Z,19.96
2023-05-19T05:38:52.799Z,20.17
2023-05-19T05:41:19.948Z,20.33
2023-05-19T05:43:48.576Z,20.43
2023-05-19T05:46:15.833Z,20.30
2023-05-19T05:48:43.678Z,20.44
2023-05-19T05:51:11.317Z,20.45
2023-05-19T05:53:42.258Z,20.48
2023-05-19T05:56:11.396Z,20.47
2023-05-19T05:58:38.560Z,20.56
2023-05-19T06:01:07.423Z,20.67
2023-05-19T06:03:34.815Z,20.82
2023-05-19T06:06:02.115Z,20.59
2023-05-19T06:08:29.401Z,20.79
2023-05-19T06:10:56.557Z,21.05
2023-05-19T06:13:23.711Z,21.04
2023-05-19T06:15:51.537Z,21.03
2023-05-19T06:18:20.082Z,21.05
2023-05-19T06:20:47.325Z,21.10
2023-05-19T06:23:14.517Z,21.36
2023-05-19T06:25:41.606Z,21.04
2023-05-19T06:28:08.764Z,21.30
2023-05-19T06:30:36.102Z,21.17
2023-05-19T06:33:03.751Z,21.38
2023-05-19T06:35:32.470Z,21.49
2023-05-19T06:37:59.743Z,21.73
2023-05-19T06:40:26.946Z,22.10
2023-05-19T06:42:54.024Z,22.34
2023-05-19T06:45:21.245Z,22.48
2023-05-19T06:47:48.587Z,22.81
2023-05-19T06:50:16.205Z,23.00
2023-05-19T06:52:44.820Z,23.30
2023-05-19T06:55:11.923Z,23.43
2023-05-19T06:57:39.285Z,23.27
2023-05-19T07:00:08.001Z,23.42
2023-05-19T07:02:35.211Z,23.69
2023-05-19T07:05:02.721Z,23.60
2023-05-19T07:07:29.884Z,23.93
2023-05-19T07:09:58.550Z,24.04
2023-05-19T07:12:25.989Z,24.17
2023-05-19T07:14:53.358Z,24.43
2023-05-19T07:17:22.958Z,23.97
2023-05-19T07:19:50.149Z,23.93
2023-05-19T07:22:17.411Z,24.13
2023-05-19T07:24:44.794Z,24.10
2023-05-19T07:27:13.444Z,23.89
2023-05-19T07:29:40.668Z,23.80
2023-05-19T07:32:07.909Z,23.52
2023-05-19T07:34:35.288Z,23.58
2023-05-19T07:37:02.411Z,23.52
2023-05-19T07:39:29.828Z,23.38
2023-05-19T07:41:57.396Z,23.45
2023-05-19T07:44:26.229Z,23.49
2023-05-19T07:46:53.587Z,23.59
2023-05-19T07:49:20.807Z,23.71
2023-05-19T07:51:48.234Z,23.50
2023-05-19T07:54:15.800Z,23.49
2023-05-19T07:56:43.056Z,23.50
2023-05-19T07:59:10.286Z,23.75
2023-05-19T08:01:38.949Z,24.04
2023-05-19T08:04:06.422Z,24.41
2023-05-19T08:06:33.925Z,24.88
2023-05-19T08:09:01.244Z,24.99
2023-05-19T08:11:28.385Z,25.30
2023-05-19T08:13:55.926Z,25.39
2023-05-19T08:16:23.357Z,25.14
2023-05-19T08:18:52.086Z,25.31
2023-05-19T08:21:19.254Z,25.31
2023-05-19T08:23:46.431Z,25.25
2023-05-19T08:26:13.630Z,24.68
2023-05-19T08:28:40.707Z,24.61
2023-05-19T08:31:07.962Z,24.43
2023-05-19T08:33:35.091Z,24.20
2023-05-19T08:36:04.520Z,24.62
2023-05-19T08:38:31.654Z,24.93
2023-05-19T08:40:58.911Z,25.37
2023-05-19T08:43:26.498Z,25.63
2023-05-19T08:45:55.051Z,25.15
2023-05-19T08:48:23.389Z,25.43
2023-05-19T08:51:03.056Z,25.58
2023-05-19T08:53:37.188Z,25.33
2023-05-19T08:56:11.272Z,25.34
2023-05-19T08:58:40.275Z,25.34
2023-05-19T09:01:09.653Z,25.46
2023-05-19T09:03:38.275Z,25.72
2023-05-19T09:06:07.138Z,25.83
2023-05-19T09:08:35.820Z,25.87
2023-05-19T09:11:03.030Z,25.95
2023-05-19T09:13:30.467Z,26.14
2023-05-19T09:15:58.790Z,26.52
2023-05-19T09:18:27.246Z,26.44
2023-05-19T09:20:58.268Z,26.51
2023-05-19T09:23:28.047Z,26.80
2023-05-19T09:25:57.712Z,26.65
2023-05-19T09:28:26.165Z,26.55
2023-05-19T09:31:00.553Z,26.56
2023-05-19T09:33:28.411Z,26.46
2023-05-19T09:35:55.686Z,26.26
2023-05-19T09:38:24.275Z,26.59
2023-05-19T09:40:52.684Z,26.72
2023-05-19T09:43:21.626Z,26.02
2023-05-19T09:45:48.897Z,26.58
2023-05-19T09:48:16.106Z,26.70
2023-05-19T09:50:44.087Z,26.09
2023-05-19T09:53:14.088Z,26.51
2023-05-19T09:55:41.488Z,27.14
2023-05-19T09:58:09.977Z,27.03
2023-05-19T10:00:40.649Z,26.92
2023-05-19T10:03:09.830Z,26.69
2023-05-19T10:05:37.886Z,26.79
2023-05-19T10:08:06.685Z,26.45
2023-05-19T10:10:34.509Z,26.45
2023-05-19T10:13:05.713Z,26.17
2023-05-19T10:15:40.809Z,26.07
2023-05-19T10:18:15.527Z,26.38
2023-05-19T10:20:45.766Z,26.41
2023-05-19T10:23:13.128Z,26.53
2023-05-19T10:25:42.431Z,26.46
2023-05-19T10:28:14.072Z,26.14
2023-05-19T10:30:45.083Z,26.23
2023-05-19T10:33:16.590Z,26.35
2023-05-19T10:36:02.607Z,26.23
2023-05-19T10:38:37.587Z,26.64
2023-05-19T10:41:11.657Z,26.71
2023-05-19T10:43:59.691Z,27.09
2023-05-19T10:46:27.964Z,27.09
2023-05-19T10:48:56.610Z,26.95
2023-05-19T10:51:31.058Z,26.71
2023-05-19T10:53:58.448Z,26.51
2023-05-19T10:56:29.594Z,26.45
2023-05-19T10:58:57.226Z,26.54
2023-05-19T11:01:31.542Z,26.71
2023-05-19T11:04:06.569Z,26.66
2023-05-19T11:06:34.930Z,26.22
2023-05-19T11:09:10.172Z,26.31
2023-05-19T11:11:48.634Z,26.19
2023-05-19T11:14:18.510Z,26.13
2023-05-19T11:16:48.076Z,26.05
2023-05-19T11:19:25.616Z,25.82
2023-05-19T11:21:53.730Z,25.83
2023-05-19T11:24:43.834Z,25.91
2023-05-19T11:27:23.048Z,25.85
2023-05-19T11:29:51.289Z,25.76
2023-05-19T11:32:20.059Z,25.32
2023-05-19T11:34:49.584Z,25.44
2023-05-19T11:37:16.905Z,25.74
2023-05-19T11:39:46.318Z,25.98
2023-05-19T11:42:14.196Z,26.12
2023-05-19T11:44:41.441Z,25.75
2023-05-19T11:47:09.268Z,25.87
2023-05-19T11:49:36.573Z,25.24
2023-05-19T11:52:05.828Z,24.88
2023-05-19T11:54:35.070Z,24.89
2023-05-19T11:57:04.029Z,24.49
2023-05-19T11:59:34.150Z,24.70
2023-05-19T12:02:14.509Z,25.36
2023-05-19T12:04:41.924Z,25.67
2023-05-19T12:07:11.548Z,25.12
2023-05-19T12:09:38.850Z,24.73
2023-05-19T12:12:06.460Z,24.84
2023-05-19T12:14:34.117Z,25.27
2023-05-19T12:17:10.845Z,24.82
2023-05-19T12:19:38.529Z,25.06
2023-05-19T12:22:08.124Z,25.17
2023-05-19T12:24:38.408Z,25.06
2023-05-19T12:27:07.420Z,24.07
2023-05-19T12:29:34.673Z,24.08
2023-05-19T12:32:03.252Z,24.58
2023-05-19T12:34:30.767Z,24.75
2023-05-19T12:36:58.104Z,24.60
2023-05-19T12:39:26.907Z,24.92
2023-05-19T12:42:01.865Z,24.69
2023-05-19T12:44:29.149Z,24.87
2023-05-19T12:46:57.787Z,24.29
2023-05-19T12:49:24.970Z,23.62
2023-05-19T12:51:53.208Z,24.15
2023-05-19T12:54:21.532Z,23.65
2023-05-19T12:56:52.590Z,24.31
2023-05-19T12:59:37.348Z,24.74
2023-05-19T13:02:05.650Z,24.58
2023-05-19T13:04:32.899Z,24.43
2023-05-19T13:07:00.043Z,24.52
2023-05-19T13:09:27.347Z,24.08
2023-05-19T13:11:54.479Z,23.71
2023-05-19T13:14:21.911Z,23.26
2023-05-19T13:16:50.738Z,23.75
2023-05-19T13:21:50.355Z,24.01
2023-05-19T13:24:17.555Z,24.22
2023-05-19T13:26:45.069Z,24.52
2023-05-19T13:29:12.272Z,24.56
2023-05-19T13:31:39.542Z,24.49
2023-05-19T13:34:08.276Z,24.60
2023-05-19T13:36:35.500Z,24.61
2023-05-19T13:39:02.749Z,24.48
2023-05-19T13:41:29.948Z,24.52
2023-05-19T13:43:58.587Z,24.65
2023-05-19T13:46:36.612Z,25.02
2023-05-19T13:49:12.591Z,24.76
2023-05-19T13:51:42.575Z,24.92
2023-05-19T13:54:09.830Z,24.32
2023-05-19T13:56:37.091Z,24.65
2023-05-19T13:59:04.370Z,24.94
2023-05-19T14:01:31.716Z,25.05
2023-05-19T14:03:59.037Z,24.74
2023-05-19T14:06:28.483Z,24.78
2023-05-19T14:08:55.730Z,24.41
2023-05-19T14:11:22.910Z,24.78
2023-05-19T14:13:51.861Z,24.39
2023-05-19T14:16:20.439Z,24.13
2023-05-19T14:18:49.225Z,24.23
2023-05-19T14:21:16.489Z,23.94
2023-05-19T14:23:45.108Z,22.74
2023-05-19T14:26:12.402Z,23.54
2023-05-19T14:28:39.609Z,23.30
2023-05-19T14:31:06.770Z,23.34
2023-05-19T14:33:35.642Z,22.84
2023-05-19T14:36:03.246Z,23.23
2023-05-19T14:38:30.537Z,23.24
2023-05-19T14:40:59.205Z,23.24
2023-05-19T14:43:26.613Z,23.32
2023-05-19T14:45:53.885Z,23.42
2023-05-19T14:48:21.218Z,23.77
2023-05-19T14:50:48.714Z,23.73
2023-05-19T14:53:16.411Z,23.97
2023-05-19T14:55:43.730Z,24.10
2023-05-19T14:58:26.942Z,23.95
2023-05-19T15:00:58.147Z,23.89
2023-05-19T15:03:25.549Z,23.67
2023-05-19T15:05:52.756Z,23.84
2023-05-19T15:08:20.227Z,24.00
2023-05-19T15:10:48.836Z,23.56
2023-05-19T15:13:17.764Z,23.32
2023-05-19T15:15:44.977Z,23.31
2023-05-19T15:18:13.889Z,23.30
2023-05-19T15:20:41.167Z,23.07
2023-05-19T15:23:08.429Z,23.05
2023-05-19T15:25:35.631Z,23.21
2023-05-19T15:28:03.100Z,23.06
2023-05-19T15:30:31.916Z,22.98
2023-05-19T15:32:59.150Z,22.94
2023-05-19T15:35:26.604Z,22.23
2023-05-19T15:40:21.065Z,22.23
2023-05-19T15:42:48.228Z,22.31
2023-05-19T15:45:16.148Z,22.30
2023-05-19T15:47:44.929Z,22.59
2023-05-19T15:50:13.936Z,22.72
2023-05-19T15:52:42.472Z,22.81
2023-05-19T15:55:10.520Z,22.58
2023-05-19T15:57:37.764Z,22.71
2023-05-19T16:00:06.258Z,22.75
2023-05-19T16:02:33.495Z,22.86
2023-05-19T16:05:02.150Z,22.96
2023-05-19T16:07:29.331Z,22.88
2023-05-19T16:09:56.632Z,22.84
2023-05-19T16:12:23.912Z,23.00
2023-05-19T16:14:51.071Z,22.84
2023-05-19T16:17:18.410Z,22.62
2023-05-19T16:19:45.602Z,22.84
2023-05-19T16:22:14.425Z,22.92
2023-05-19T16:24:41.757Z,22.99
2023-05-19T16:27:09.253Z,23.07
2023-05-19T16:29:36.594Z,23.17
2023-05-19T16:32:04.311Z,23.09
2023-05-19T16:34:31.775Z,22.92
2023-05-19T16:36:59.031Z,22.27
2023-05-19T16:39:27.630Z,22.72
2023-05-19T16:41:54.785Z,22.93
2023-05-19T16:44:21.990Z,22.71
2023-05-19T16:46:49.155Z,22.72
2023-05-19T16:49:16.377Z,22.91
2023-05-19T16:51:43.689Z,22.82
2023-05-19T16:54:10.898Z,22.79
2023-05-19T16:56:39.730Z,22.68
2023-05-19T16:59:10.937Z,22.80
2023-05-19T17:01:38.260Z,22.87
2023-05-19T17:04:05.883Z,22.88
2023-05-19T17:06:33.192Z,22.44
2023-05-19T17:09:00.438Z,22.55
2023-05-19T17:11:28.078Z,22.41
2023-05-19T17:13:56.757Z,22.60
2023-05-19T17:16:24.083Z,22.62
2023-05-19T17:18:52.213Z,22.43
2023-05-19T17:21:19.428Z,22.42
2023-05-19T17:23:46.677Z,22.46
2023-05-19T17:26:13.896Z,22.43
2023-05-19T17:28:40.969Z,22.53
2023-05-19T17:31:12.880Z,22.29
2023-05-19T17:33:40.895Z,22.26
2023-05-19T17:36:08.872Z,22.14
2023-05-19T17:38:36.129Z,22.26
2023-05-19T17:41:03.500Z,22.34
2023-05-19T17:43:30.870Z,22.28
2023-05-19T17:46:00.295Z,22.35
2023-05-19T17:48:29.970Z,22.36
2023-05-19T17:50:57.328Z,22.29
2023-05-19T17:53:25.369Z,22.16
2023-05-19T17:55:57.440Z,22.14
2023-05-19T17:58:25.762Z,22.17
2023-05-19T18:00:54.008Z,22.13
2023-05-19T18:03:22.024Z,22.19
2023-05-19T18:05:51.632Z,22.11
2023-05-19T18:08:19.412Z,22.06
2023-05-19T18:10:47.851Z,22.01
2023-05-19T18:13:15.033Z,22.03
2023-05-19T18:15:43.397Z,22.05
2023-05-19T18:18:10.842Z,22.00
2023-05-19T18:20:38.247Z,22.02
2023-05-19T18:23:07.011Z,22.07
2023-05-19T18:25:35.210Z,21.98
2023-05-19T18:28:02.556Z,22.10
2023-05-19T18:30:29.805Z,22.14
2023-05-19T18:32:57.154Z,22.03
2023-05-19T18:35:24.449Z,21.96
2023-05-19T18:37:55.094Z,21.96
2023-05-19T18:40:24.236Z,22.00
2023-05-19T18:42:51.441Z,21.99
2023-05-19T18:45:18.810Z,21.95
2023-05-19T18:47:46.230Z,21.95
2023-05-19T18:50:13.587Z,21.88
2023-05-19T18:52:41.131Z,21.91
2023-05-19T18:55:09.551Z,21.86
2023-05-19T18:57:38.238Z,21.89
2023-05-19T19:00:07.329Z,21.86
2023-05-19T19:02:34.673Z,21.79
2023-05-19T19:05:03.071Z,21.82
2023-05-19T19:07:30.248Z,21.81
2023-05-19T19:09:57.470Z,21.84
2023-05-19T19:12:24.644Z,21.80
2023-05-19T19:14:53.251Z,21.80
2023-05-19T19:17:20.593Z,21.83
2023-05-19T19:19:47.982Z,21.85
2023-05-19T19:22:15.530Z,21.82
2023-05-19T19:24:42.790Z,21.75
2023-05-19T19:27:10.358Z,21.76
2023-05-19T19:29:37.673Z,21.74
2023-05-19T19:32:07.504Z,21.78
2023-05-19T19:34:34.811Z,21.74
2023-05-19T19:37:02.052Z,21.55
2023-05-19T19:39:29.373Z,21.44
2023-05-19T19:41:56.831Z,21.26
2023-05-19T19:44:23.995Z,21.41
2023-05-19T19:46:51.403Z,21.48
2023-05-19T19:49:20.209Z,20.77
2023-05-19T19:51:47.339Z,21.05
2023-05-19T19:54:14.551Z,21.08
2023-05-19T19:56:41.772Z,21.07
2023-05-19T19:59:08.865Z,20.91
2023-05-19T20:01:36.199Z,20.72
2023-05-19T20:04:03.562Z,20.94
2023-05-19T20:06:32.380Z,20.52
2023-05-19T20:08:59.577Z,20.84
2023-05-19T20:11:26.815Z,20.86
2023-05-19T20:13:53.936Z,20.45
2023-05-19T20:16:21.185Z,20.45
2023-05-19T20:18:48.678Z,20.63
2023-05-19T20:21:15.893Z,20.79
2023-05-19T20:23:44.490Z,20.50
2023-05-19T20:26:13.076Z,20.59
2023-05-19T20:28:41.032Z,20.39
2023-05-19T20:31:08.491Z,20.46
2023-05-19T20:33:35.892Z,20.66
2023-05-19T20:36:03.185Z,20.72
2023-05-19T20:38:32.020Z,20.58
2023-05-19T20:41:00.792Z,20.72
2023-05-19T20:43:28.063Z,20.79
2023-05-19T20:45:55.544Z,20.61
2023-05-19T20:48:22.823Z,20.82
2023-05-19T20:50:50.790Z,20.90
2023-05-19T20:53:18.715Z,20.95
2023-05-19T20:55:46.321Z,20.95
2023-05-19T20:58:15.211Z,20.99
2023-05-19T21:00:42.450Z,21.08
2023-05-19T21:03:09.827Z,20.94
2023-05-19T21:05:37.204Z,21.01
2023-05-19T21:08:04.797Z,20.76
2023-05-19T21:10:32.386Z,20.49
2023-05-19T21:13:00.125Z,20.71
2023-05-19T21:15:29.487Z,20.71
2023-05-19T21:17:56.835Z,20.80
2023-05-19T21:20:24.374Z,20.84
2023-05-19T21:22:51.933Z,20.84
2023-05-19T21:25:19.262Z,20.79
2023-05-19T21:27:46.854Z,20.60
2023-05-19T21:30:14.460Z,20.31
2023-05-19T21:32:43.913Z,20.64
2023-05-19T21:35:11.275Z,20.25
2023-05-19T21:37:38.562Z,20.34
2023-05-19T21:40:07.152Z,20.29
2023-05-19T21:42:34.593Z,20.41
2023-05-19T21:45:02.309Z,20.31
2023-05-19T21:47:29.599Z,20.11
2023-05-19T21:49:58.323Z,20.24
2023-05-19T21:52:26.012Z,20.37
2023-05-19T21:54:53.131Z,20.37
2023-05-19T21:57:20.305Z,20.35
2023-05-19T21:59:47.792Z,20.19
2023-05-19T22:02:15.005Z,20.26
2023-05-19T22:04:42.216Z,20.14
2023-05-19T22:07:10.830Z,20.15
2023-05-19T22:09:38.006Z,19.91
2023-05-19T22:12:06.111Z,19.95
2023-05-19T22:14:33.813Z,20.05
2023-05-19T22:17:00.910Z,20.08
2023-05-19T22:19:28.091Z,20.24
2023-05-19T22:22:01.750Z,20.26
2023-05-19T22:24:38.931Z,20.30
2023-05-19T22:27:08.480Z,20.15
2023-05-19T22:29:36.828Z,20.31
2023-05-19T22:32:04.606Z,19.93
2023-05-19T22:34:31.941Z,20.20
2023-05-19T22:36:59.188Z,20.10
2023-05-19T22:39:26.328Z,20.11
2023-05-19T22:41:54.981Z,20.24
2023-05-19T22:44:22.274Z,20.31
2023-05-19T22:46:49.447Z,20.13
2023-05-19T22:49:16.767Z,20.14
2023-05-19T22:51:44.000Z,20.22
2023-05-19T22:54:11.247Z,20.15
2023-05-19T22:56:38.448Z,20.10
2023-05-19T22:59:06.991Z,19.83
2023-05-19T23:01:34.236Z,19.74
2023-05-19T23:04:01.805Z,19.78
2023-05-19T23:06:29.081Z,19.96
2023-05-19T23:09:00.765Z,19.97
2023-05-19T23:11:28.031Z,20.09
2023-05-19T23:13:55.236Z,19.85
2023-05-19T23:16:23.828Z,20.02
2023-05-19T23:18:51.047Z,20.02
2023-05-19T23:21:18.181Z,19.90
2023-05-19T23:23:45.506Z,20.07
2023-05-19T23:26:12.829Z,20.04
2023-05-19T23:28:41.423Z,19.91
2023-05-19T23:31:08.828Z,19.91
2023-05-19T23:33:37.507Z,20.01
2023-05-19T23:36:09.466Z,20.02
2023-05-19T23:38:38.429Z,20.07
2023-05-19T23:41:05.832Z,20.12
2023-05-19T23:43:33.013Z,19.97
2023-05-19T23:46:01.093Z,20.11
2023-05-19T23:48:29.019Z,19.93
2023-05-19T23:50:57.755Z,20.02
2023-05-19T23:53:25.032Z,20.10
2023-05-19T23:55:52.276Z,20.09
2023-05-19T23:58:19.557Z,20.07
